Time;durP1;ratioP1;P1;durP2;ratioP2;P2;SDS_P1;SDS_P2;PMS_P1;PMS_P2;Temp;Humidity;BMP_temperature;BMP_pressure;BME280_temperature;BME280_humidity;BME280_pressure;Samples;Min_cycle;Max_cycle;Signal;HPM_P1;HPM_P2
2023/09/16 00:00:40;;;;;;;4.17;3.77;;;14.30;99.90;;;;;;5059258;28;21077;-82
2023/09/16 00:03:07;;;;;;;8.83;4.30;;;14.30;99.90;;;;;;5064320;28;21020;-81
2023/09/16 00:05:38;;;;;;;6.97;3.70;;;14.30;99.90;;;;;;5064183;28;20549;-83
2023/09/16 00:08:07;;;;;;;4.50;4.10;;;14.20;99.90;;;;;;5064263;28;20807;-84
2023/09/16 00:10:34;;;;;;;4.43;4.00;;;14.20;99.90;;;;;;5063535;28;20556;-84
2023/09/16 00:13:07;;;;;;;4.83;4.00;;;14.20;99.90;;;;;;5066240;28;20466;-84
2023/09/16 00:15:34;;;;;;;4.47;3.37;;;14.20;99.90;;;;;;5067454;28;21115;-83
2023/09/16 00:18:01;;;;;;;4.73;4.20;;;14.20;99.90;;;;;;5063215;28;20876;-81
2023/09/16 00:20:29;;;;;;;4.57;4.00;;;14.20;99.90;;;;;;5059585;28;21070;-84
2023/09/16 00:22:58;;;;;;;5.63;5.23;;;14.10;99.90;;;;;;5065763;28;20470;-83
2023/09/16 00:25:26;;;;;;;4.20;3.80;;;14.00;99.90;;;;;;5063305;28;20842;-84
2023/09/16 00:27:54;;;;;;;4.77;4.27;;;14.00;99.90;;;;;;5063399;28;20607;-84
2023/09/16 00:30:22;;;;;;;6.60;5.60;;;13.90;99.90;;;;;;5066818;28;20530;-87
2023/09/16 00:32:50;;;;;;;4.80;4.10;;;13.90;99.90;;;;;;5066815;28;20451;-82
2023/09/16 00:35:18;;;;;;;5.57;4.17;;;14.00;99.90;;;;;;5063107;28;20456;-81
2023/09/16 00:37:46;;;;;;;5.40;4.77;;;13.90;99.90;;;;;;5062303;28;20566;-82
2023/09/16 00:40:17;;;;;;;4.77;4.17;;;13.80;99.90;;;;;;5060149;28;20509;-82
2023/09/16 00:42:44;;;;;;;4.13;3.70;;;13.80;99.90;;;;;;5063176;28;20472;-85
2023/09/16 00:45:14;;;;;;;4.33;3.83;;;13.70;99.90;;;;;;5058943;28;20485;-82
2023/09/16 00:47:42;;;;;;;6.67;4.83;;;13.80;99.90;;;;;;5058822;28;20465;-81
2023/09/16 00:50:12;;;;;;;6.80;5.13;;;13.80;99.90;;;;;;5068839;28;20553;-82
2023/09/16 00:52:45;;;;;;;4.93;4.47;;;13.80;99.90;;;;;;5072183;28;20470;-82
2023/09/16 00:55:15;;;;;;;7.07;5.20;;;13.80;99.90;;;;;;5061745;28;20651;-81
2023/09/16 00:57:47;;;;;;;5.33;4.80;;;13.70;99.90;;;;;;5056640;28;20959;-81
2023/09/16 01:00:16;;;;;;;6.50;3.83;;;13.70;99.90;;;;;;5061254;28;20948;-84
2023/09/16 01:02:44;;;;;;;5.50;5.00;;;13.60;99.90;;;;;;5063838;28;20826;-82
2023/09/16 01:05:15;;;;;;;5.20;4.40;;;13.60;99.90;;;;;;5061395;28;20482;-85
2023/09/16 01:07:45;;;;;;;4.90;4.43;;;13.60;99.90;;;;;;5056186;28;20752;-84
2023/09/16 01:10:15;;;;;;;4.63;4.13;;;13.60;99.90;;;;;;5053270;28;20517;-81
2023/09/16 01:12:43;;;;;;;4.93;4.43;;;13.50;99.90;;;;;;5065035;28;20547;-81
2023/09/16 01:15:14;;;;;;;6.27;5.03;;;13.50;99.90;;;;;;5056834;28;20469;-82
2023/09/16 01:17:47;;;;;;;6.07;5.57;;;13.60;99.90;;;;;;5061977;28;21219;-81
2023/09/16 01:20:16;;;;;;;4.97;4.13;;;13.60;99.90;;;;;;5051777;28;20584;-80
2023/09/16 01:22:45;;;;;;;4.47;4.07;;;13.50;99.90;;;;;;5056257;28;20505;-81
2023/09/16 01:25:14;;;;;;;5.03;4.53;;;13.30;99.90;;;;;;5062795;28;20513;-84
2023/09/16 01:27:41;;;;;;;4.50;4.10;;;13.20;99.90;;;;;;5060921;28;20509;-81
2023/09/16 01:30:10;;;;;;;7.43;4.70;;;13.10;99.90;;;;;;5062232;28;21292;-81
2023/09/16 01:32:42;;;;;;;4.90;4.43;;;12.90;99.90;;;;;;5056558;28;20468;-81
2023/09/16 01:35:14;;;;;;;5.30;4.03;;;12.90;99.90;;;;;;5063734;28;20469;-81
2023/09/16 01:37:44;;;;;;;3.93;3.57;;;12.90;99.90;;;;;;5062600;28;20470;-82
2023/09/16 01:40:14;;;;;;;6.00;5.00;;;12.90;99.90;;;;;;5059205;28;20469;-81
2023/09/16 01:42:42;;;;;;;4.27;3.90;;;12.80;99.90;;;;;;5060267;28;20549;-81
2023/09/16 01:45:11;;;;;;;4.80;4.40;;;12.90;99.90;;;;;;5062871;28;20577;-81
2023/09/16 01:47:38;;;;;;;5.57;5.10;;;13.00;99.90;;;;;;5059738;28;20520;-80
2023/09/16 01:50:05;;;;;;;9.47;5.83;;;13.00;99.90;;;;;;5055639;28;20516;-81
2023/09/16 01:52:32;;;;;;;7.07;6.37;;;12.90;99.90;;;;;;5064092;28;20483;-81
2023/09/16 01:54:59;;;;;;;6.93;6.27;;;13.00;99.90;;;;;;5061342;28;20896;-80
2023/09/16 01:57:28;;;;;;;7.70;6.63;;;13.00;99.90;;;;;;5065761;28;20524;-81
2023/09/16 01:59:55;;;;;;;5.20;4.80;;;13.00;99.90;;;;;;5062410;28;20570;-80
2023/09/16 02:02:22;;;;;;;5.43;4.83;;;12.90;99.90;;;;;;5069086;28;21270;-80
2023/09/16 02:04:49;;;;;;;5.47;4.97;;;12.80;99.90;;;;;;5077391;28;20469;-80
2023/09/16 02:07:16;;;;;;;5.30;4.80;;;12.70;99.90;;;;;;5079629;28;20972;-82
2023/09/16 02:09:43;;;;;;;5.53;5.00;;;12.70;99.90;;;;;;5066282;28;20476;-80
2023/09/16 02:12:10;;;;;;;5.77;5.23;;;12.90;99.90;;;;;;5062313;28;20514;-80
2023/09/16 02:14:39;;;;;;;8.83;5.67;;;12.70;99.90;;;;;;5050959;28;20455;-81
2023/09/16 02:17:08;;;;;;;5.60;5.10;;;12.60;99.90;;;;;;5064309;28;20495;-80
2023/09/16 02:19:35;;;;;;;6.57;4.80;;;12.60;99.90;;;;;;5055974;28;20995;-81
2023/09/16 02:22:02;;;;;;;5.60;5.10;;;12.70;99.90;;;;;;5068893;28;20516;-81
2023/09/16 02:24:29;;;;;;;5.27;4.87;;;12.50;99.90;;;;;;5067177;28;21016;-81
2023/09/16 02:26:56;;;;;;;6.20;5.33;;;12.50;99.90;;;;;;5068169;28;20624;-81
2023/09/16 02:29:23;;;;;;;4.90;4.37;;;12.50;99.90;;;;;;5063528;28;20451;-80
2023/09/16 02:31:51;;;;;;;4.53;4.20;;;12.50;99.90;;;;;;5065375;28;20468;-82
2023/09/16 02:34:18;;;;;;;5.70;4.70;;;12.40;99.90;;;;;;5069295;28;21001;-81
2023/09/16 02:36:45;;;;;;;6.83;4.70;;;12.40;99.90;;;;;;5066441;28;20524;-83
2023/09/16 02:39:12;;;;;;;5.17;4.67;;;12.30;99.90;;;;;;5062576;28;20514;-81
2023/09/16 02:41:40;;;;;;;7.30;5.47;;;12.30;99.90;;;;;;5064564;28;20854;-83
2023/09/16 02:44:08;;;;;;;5.37;4.87;;;12.20;99.90;;;;;;5064586;28;20544;-81
2023/09/16 02:46:35;;;;;;;4.60;4.17;;;12.30;99.90;;;;;;5059342;28;21097;-81
2023/09/16 02:49:03;;;;;;;6.60;5.07;;;12.30;99.90;;;;;;5061176;28;20475;-81
2023/09/16 02:51:31;;;;;;;5.03;4.57;;;12.30;99.90;;;;;;5067604;28;20460;-83
2023/09/16 02:54:00;;;;;;;6.03;5.00;;;12.20;99.90;;;;;;5062345;28;20467;-81
2023/09/16 02:56:27;;;;;;;9.80;6.00;;;12.20;99.90;;;;;;5060838;28;20481;-81
2023/09/16 02:58:54;;;;;;;6.83;5.70;;;12.30;99.90;;;;;;5065823;28;20456;-83
2023/09/16 03:01:21;;;;;;;4.80;4.40;;;12.30;99.90;;;;;;5069585;28;21010;-81
2023/09/16 03:03:48;;;;;;;6.10;5.50;;;12.20;99.90;;;;;;5062835;28;20528;-83
2023/09/16 03:06:16;;;;;;;5.00;4.60;;;12.20;99.90;;;;;;5065349;28;20528;-81
2023/09/16 03:08:43;;;;;;;6.47;4.63;;;12.20;99.90;;;;;;5060318;28;20508;-81
2023/09/16 03:11:11;;;;;;;7.90;3.93;;;12.20;99.90;;;;;;5064330;28;20447;-80
2023/09/16 03:13:38;;;;;;;4.87;4.47;;;12.20;99.90;;;;;;5066090;28;20497;-80
2023/09/16 03:16:24;;;;;;;6.77;6.10;;;12.20;99.90;;;;;;5066127;28;20470;-81
2023/09/16 03:18:52;;;;;;;6.83;4.10;;;12.20;99.90;;;;;;5061891;28;21408;-81
2023/09/16 03:21:24;;;;;;;5.27;4.77;;;12.20;99.90;;;;;;5062292;28;20485;-81
2023/09/16 03:23:51;;;;;;;6.67;5.40;;;12.10;99.90;;;;;;5061852;28;20521;-82
2023/09/16 03:26:18;;;;;;;5.30;4.60;;;12.00;99.90;;;;;;5067647;28;20481;-81
2023/09/16 03:28:46;;;;;;;6.20;5.60;;;12.00;99.90;;;;;;5064877;28;20443;-81
2023/09/16 03:31:13;;;;;;;5.37;4.87;;;12.10;99.90;;;;;;5066242;28;21054;-82
2023/09/16 03:33:40;;;;;;;7.00;6.40;;;12.10;99.90;;;;;;5062811;28;20465;-83
2023/09/16 03:36:08;;;;;;;6.57;5.90;;;12.10;99.90;;;;;;5061241;28;20946;-79
2023/09/16 03:38:45;;;;;;;6.60;5.83;;;12.10;99.90;;;;;;5062918;28;20530;-80
2023/09/16 03:41:12;;;;;;;6.90;6.20;;;12.00;99.90;;;;;;5065558;28;20524;-81
2023/09/16 03:43:39;;;;;;;7.60;6.13;;;11.90;99.90;;;;;;5059250;28;20446;-81
2023/09/16 03:46:06;;;;;;;5.53;5.03;;;11.90;99.90;;;;;;5064850;28;20479;-81
2023/09/16 03:48:33;;;;;;;4.37;3.60;;;11.90;99.90;;;;;;5062026;28;20517;-81
2023/09/16 03:51:00;;;;;;;5.77;5.37;;;11.80;99.90;;;;;;5071552;28;20474;-80
2023/09/16 03:53:27;;;;;;;6.60;6.00;;;11.80;99.90;;;;;;5083608;28;20431;-80
2023/09/16 03:55:55;;;;;;;7.10;6.40;;;11.70;99.90;;;;;;5066009;28;20954;-80
2023/09/16 03:58:22;;;;;;;5.47;4.93;;;11.60;99.90;;;;;;5068369;28;20529;-80
2023/09/16 04:00:49;;;;;;;6.90;4.70;;;11.60;99.90;;;;;;5066457;28;20455;-80
2023/09/16 04:03:16;;;;;;;12.00;5.87;;;11.70;99.90;;;;;;5066532;28;20551;-82
2023/09/16 04:05:43;;;;;;;17.40;6.83;;;11.60;99.90;;;;;;5064751;28;21116;-81
2023/09/16 04:08:10;;;;;;;4.83;4.33;;;11.60;99.90;;;;;;5067036;28;20447;-80
2023/09/16 04:10:37;;;;;;;4.93;4.43;;;11.50;99.90;;;;;;5063776;28;20447;-81
2023/09/16 04:13:05;;;;;;;4.83;4.10;;;11.50;99.90;;;;;;5049470;28;20526;-80
2023/09/16 04:15:32;;;;;;;6.83;5.13;;;11.50;99.90;;;;;;5062970;28;20505;-79
2023/09/16 04:17:59;;;;;;;6.60;5.93;;;11.40;99.90;;;;;;5061254;28;20509;-81
2023/09/16 04:20:26;;;;;;;5.37;4.63;;;11.50;99.90;;;;;;5062975;28;20524;-81
2023/09/16 04:22:53;;;;;;;5.50;5.00;;;11.50;99.90;;;;;;5055778;28;20513;-80
2023/09/16 04:25:22;;;;;;;5.80;4.73;;;11.40;99.90;;;;;;5061863;28;20439;-80
2023/09/16 04:27:49;;;;;;;10.87;5.67;;;11.40;99.90;;;;;;5062255;28;20915;-80
2023/09/16 04:30:19;;;;;;;5.73;4.77;;;11.30;99.90;;;;;;5066173;28;20455;-81
2023/09/16 04:32:46;;;;;;;6.37;4.70;;;11.30;99.90;;;;;;5063064;28;20467;-79
2023/09/16 04:35:14;;;;;;;12.63;5.73;;;11.30;99.90;;;;;;5058518;28;20444;-82
2023/09/16 04:37:40;;;;;;;34.93;9.30;;;11.30;99.90;;;;;;5058290;28;20493;-81
2023/09/16 04:40:10;;;;;;;5.20;4.80;;;11.30;99.90;;;;;;5050573;28;20475;-81
2023/09/16 04:42:38;;;;;;;3.50;3.20;;;11.20;99.90;;;;;;5050008;28;20462;-82
2023/09/16 04:45:05;;;;;;;5.47;5.03;;;11.30;99.90;;;;;;5062233;28;20934;-82
2023/09/16 04:47:35;;;;;;;5.43;4.90;;;11.30;99.90;;;;;;5059032;28;20899;-80
2023/09/16 04:50:01;;;;;;;5.00;4.40;;;11.50;99.90;;;;;;5056567;28;21017;-81
2023/09/16 04:52:28;;;;;;;4.47;4.07;;;11.60;99.90;;;;;;5056485;28;20533;-81
2023/09/16 04:54:55;;;;;;;6.00;5.23;;;11.60;99.90;;;;;;5059898;28;20484;-81
2023/09/16 04:57:22;;;;;;;3.97;3.60;;;11.60;99.90;;;;;;5062316;28;20466;-83
2023/09/16 04:59:49;;;;;;;5.47;4.53;;;11.70;99.90;;;;;;5064897;28;20455;-82
2023/09/16 05:02:16;;;;;;;8.00;5.53;;;11.60;99.90;;;;;;5064131;28;20501;-81
2023/09/16 05:04:45;;;;;;;4.30;3.90;;;11.70;99.90;;;;;;5052046;28;20472;-80
2023/09/16 05:07:12;;;;;;;4.83;3.60;;;11.70;99.90;;;;;;5062606;28;20538;-79
2023/09/16 05:09:38;;;;;;;12.60;6.83;;;11.50;99.90;;;;;;5063175;28;20514;-80
2023/09/16 05:12:06;;;;;;;37.80;8.07;;;11.40;99.90;;;;;;5054212;28;20461;-80
2023/09/16 05:14:33;;;;;;;3.47;3.17;;;11.50;99.90;;;;;;5066837;28;20443;-80
2023/09/16 05:17:00;;;;;;;4.20;3.30;;;11.50;99.90;;;;;;5078120;28;20475;-79
2023/09/16 05:19:27;;;;;;;7.40;5.20;;;11.50;99.90;;;;;;5061829;28;21181;-81
2023/09/16 05:21:55;;;;;;;6.93;4.30;;;11.50;99.90;;;;;;5053013;28;20652;-79
2023/09/16 05:24:22;;;;;;;9.97;4.90;;;11.60;99.90;;;;;;5059823;28;20442;-80
2023/09/16 05:26:49;;;;;;;15.27;6.50;;;11.60;99.90;;;;;;5058646;28;21062;-80
2023/09/16 05:29:16;;;;;;;3.73;3.43;;;11.70;99.90;;;;;;5069323;28;20863;-80
2023/09/16 05:31:43;;;;;;;3.80;3.50;;;11.60;99.90;;;;;;5070321;28;20476;-80
2023/09/16 05:34:10;;;;;;;7.67;4.50;;;11.50;99.90;;;;;;5064939;28;20505;-81
2023/09/16 05:36:37;;;;;;;3.27;2.90;;;11.50;99.90;;;;;;5070138;28;20539;-80
2023/09/16 05:39:05;;;;;;;2.90;2.70;;;11.50;99.90;;;;;;5069133;28;20473;-79
2023/09/16 05:41:33;;;;;;;3.20;2.90;;;11.60;99.90;;;;;;5063526;28;21069;-80
2023/09/16 05:44:01;;;;;;;3.20;3.00;;;11.70;99.90;;;;;;5069405;28;20450;-80
2023/09/16 05:46:28;;;;;;;4.07;3.67;;;12.00;99.90;;;;;;5064541;28;20519;-80
2023/09/16 05:49:06;;;;;;;3.70;3.30;;;12.10;99.90;;;;;;5070308;28;20445;-81
2023/09/16 05:51:33;;;;;;;3.17;2.97;;;12.40;99.90;;;;;;5069075;28;20800;-81
2023/09/16 05:54:00;;;;;;;3.53;2.57;;;12.50;99.90;;;;;;5069188;28;20452;-80
2023/09/16 05:56:28;;;;;;;4.33;3.90;;;12.70;99.90;;;;;;5069984;28;20444;-80
2023/09/16 05:58:56;;;;;;;4.40;4.10;;;12.80;99.90;;;;;;5065190;28;20487;-79
2023/09/16 06:01:23;;;;;;;5.17;3.87;;;12.90;99.90;;;;;;5067889;28;21001;-82
2023/09/16 06:03:51;;;;;;;5.97;4.50;;;13.00;99.90;;;;;;5069664;28;20512;-82
2023/09/16 06:06:19;;;;;;;5.73;4.50;;;13.10;99.90;;;;;;5068748;28;20532;-83
2023/09/16 06:08:46;;;;;;;5.10;4.60;;;13.20;99.90;;;;;;5061631;28;20517;-82
2023/09/16 06:11:13;;;;;;;4.93;4.53;;;13.20;99.90;;;;;;5063072;28;20452;-82
2023/09/16 06:13:42;;;;;;;6.73;5.53;;;13.30;99.90;;;;;;5055483;28;20449;-82
2023/09/16 06:16:09;;;;;;;5.77;5.17;;;13.50;99.90;;;;;;5062500;28;20461;-83
2023/09/16 06:18:36;;;;;;;6.43;5.83;;;13.60;99.90;;;;;;5063466;28;20502;-81
2023/09/16 06:21:03;;;;;;;5.57;3.80;;;13.70;99.90;;;;;;5064359;28;20477;-82
2023/09/16 06:23:31;;;;;;;4.37;3.67;;;14.00;99.90;;;;;;5057554;28;20446;-79
2023/09/16 06:25:58;;;;;;;4.30;3.90;;;14.10;99.90;;;;;;5065405;28;20472;-79
2023/09/16 06:28:25;;;;;;;3.77;2.90;;;13.90;99.90;;;;;;5068028;28;20453;-79
2023/09/16 06:30:53;;;;;;;4.00;3.67;;;13.90;99.90;;;;;;5061612;28;20453;-80
2023/09/16 06:33:20;;;;;;;5.10;4.10;;;13.90;99.90;;;;;;5064370;28;20466;-79
2023/09/16 06:35:47;;;;;;;4.07;3.77;;;14.00;99.90;;;;;;5067103;28;20498;-79
2023/09/16 06:38:14;;;;;;;4.90;3.80;;;14.10;99.90;;;;;;5062893;28;20466;-79
2023/09/16 06:40:41;;;;;;;5.07;3.83;;;14.10;99.90;;;;;;5083854;28;20518;-79
2023/09/16 06:43:08;;;;;;;5.10;4.60;;;13.90;99.90;;;;;;5083687;28;20453;-79
2023/09/16 06:45:35;;;;;;;5.87;4.80;;;13.90;99.90;;;;;;5069923;28;20813;-78
2023/09/16 06:48:04;;;;;;;8.37;5.53;;;13.80;99.90;;;;;;5070325;28;20518;-79
2023/09/16 06:50:31;;;;;;;7.40;5.10;;;13.80;99.90;;;;;;5065130;28;20489;-79
2023/09/16 06:52:58;;;;;;;4.97;4.47;;;13.90;99.90;;;;;;5069078;28;20506;-78
2023/09/16 06:55:25;;;;;;;4.77;4.37;;;14.00;99.90;;;;;;5064420;28;20547;-78
2023/09/16 06:57:52;;;;;;;9.13;4.60;;;13.90;99.90;;;;;;5066840;28;20459;-79
2023/09/16 07:00:19;;;;;;;5.10;4.57;;;14.00;99.90;;;;;;5067354;28;20651;-79
2023/09/16 07:02:46;;;;;;;4.80;4.30;;;14.10;99.90;;;;;;5067251;28;20459;-79
2023/09/16 07:05:14;;;;;;;5.93;5.43;;;14.10;99.90;;;;;;5058342;28;20461;-79
2023/09/16 07:07:42;;;;;;;4.93;4.43;;;14.20;99.90;;;;;;5066513;28;20499;-79
2023/09/16 07:10:10;;;;;;;5.07;4.67;;;14.40;99.90;;;;;;5064825;28;20464;-79
2023/09/16 07:12:37;;;;;;;7.47;3.97;;;14.50;99.90;;;;;;5065510;28;20847;-79
2023/09/16 07:15:04;;;;;;;4.40;3.97;;;14.70;99.90;;;;;;5066649;28;21213;-79
2023/09/16 07:17:34;;;;;;;3.80;3.50;;;14.80;99.90;;;;;;5059182;28;20449;-79
2023/09/16 07:20:01;;;;;;;4.63;4.23;;;14.90;99.90;;;;;;5056844;28;20451;-79
2023/09/16 07:22:30;;;;;;;5.40;4.90;;;15.00;99.90;;;;;;5068316;28;20453;-80
2023/09/16 07:24:57;;;;;;;6.70;6.00;;;15.30;99.90;;;;;;5060607;28;20523;-79
2023/09/16 07:27:24;;;;;;;7.13;4.50;;;15.40;99.90;;;;;;5066746;28;20581;-79
2023/09/16 07:29:51;;;;;;;4.87;4.47;;;15.60;99.90;;;;;;5063643;28;20986;-79
2023/09/16 07:32:18;;;;;;;6.73;6.10;;;15.50;99.90;;;;;;5062450;28;20442;-79
2023/09/16 07:34:44;;;;;;;4.20;3.90;;;15.80;99.90;;;;;;5064220;28;20507;-79
2023/09/16 07:37:11;;;;;;;6.37;5.77;;;16.00;99.90;;;;;;5062413;28;20513;-79
2023/09/16 07:39:40;;;;;;;6.90;5.40;;;16.20;99.90;;;;;;5062375;28;21140;-78
2023/09/16 07:42:07;;;;;;;5.63;5.03;;;16.30;99.90;;;;;;5064091;28;21341;-79
2023/09/16 07:44:34;;;;;;;5.27;4.70;;;16.30;99.90;;;;;;5060562;28;21082;-79
2023/09/16 07:47:00;;;;;;;4.97;4.57;;;16.40;99.90;;;;;;5064765;28;20532;-79
2023/09/16 07:49:27;;;;;;;5.30;4.50;;;16.50;99.90;;;;;;5065137;28;20475;-79
2023/09/16 07:51:54;;;;;;;5.30;4.83;;;16.50;99.90;;;;;;5065595;28;20517;-80
2023/09/16 07:54:22;;;;;;;5.23;4.73;;;16.60;99.90;;;;;;5064360;28;20720;-79
2023/09/16 07:56:50;;;;;;;4.80;4.30;;;16.70;99.90;;;;;;5059522;28;20473;-80
2023/09/16 07:59:20;;;;;;;5.90;4.43;;;16.70;99.90;;;;;;5065608;28;20440;-78
2023/09/16 08:01:47;;;;;;;3.30;3.00;;;16.80;99.90;;;;;;5062886;28;20459;-79
2023/09/16 08:04:14;;;;;;;3.70;3.40;;;17.00;99.90;;;;;;5060252;28;20468;-79
2023/09/16 08:06:41;;;;;;;5.97;5.47;;;17.00;99.90;;;;;;5081339;28;20570;-79
2023/09/16 08:09:08;;;;;;;4.83;4.03;;;17.00;99.90;;;;;;5071406;28;20459;-79
2023/09/16 08:11:35;;;;;;;5.00;4.50;;;17.10;99.90;;;;;;5067048;28;20964;-80
2023/09/16 08:14:03;;;;;;;4.23;3.83;;;17.30;99.90;;;;;;5070763;28;20521;-79
2023/09/16 08:16:30;;;;;;;4.43;3.90;;;17.50;99.90;;;;;;5064676;28;20476;-80
2023/09/16 08:18:57;;;;;;;5.50;5.00;;;17.80;99.90;;;;;;5062599;28;20482;-80
2023/09/16 08:21:24;;;;;;;6.93;5.53;;;18.10;99.90;;;;;;5068232;28;20553;-79
2023/09/16 08:23:51;;;;;;;4.93;4.53;;;18.10;99.90;;;;;;5064306;28;20549;-80
2023/09/16 08:26:18;;;;;;;5.03;4.53;;;18.40;99.90;;;;;;5061489;28;20464;-80
2023/09/16 08:28:44;;;;;;;4.27;3.87;;;18.60;99.90;;;;;;5057685;28;21031;-81
2023/09/16 08:31:13;;;;;;;4.87;4.50;;;18.70;99.90;;;;;;5064741;28;20444;-81
2023/09/16 08:33:40;;;;;;;4.70;4.30;;;18.70;99.90;;;;;;5064129;28;21022;-81
2023/09/16 08:36:07;;;;;;;4.40;4.03;;;18.60;99.90;;;;;;5060291;28;21045;-81
2023/09/16 08:38:34;;;;;;;4.10;3.70;;;18.40;99.90;;;;;;5066699;28;20472;-82
2023/09/16 08:41:12;;;;;;;4.40;3.63;;;18.60;99.90;;;;;;5063537;28;20513;-81
2023/09/16 08:43:41;;;;;;;3.70;3.40;;;18.90;99.90;;;;;;5061585;28;20462;-80
2023/09/16 08:46:11;;;;;;;2.47;2.20;;;19.00;99.90;;;;;;5062861;28;20473;-80
2023/09/16 08:48:46;;;;;;;4.20;3.73;;;18.90;99.90;;;;;;5063553;28;21006;-81
2023/09/16 08:51:16;;;;;;;4.77;3.33;;;18.90;99.90;;;;;;5061597;28;20475;-81
2023/09/16 08:53:45;;;;;;;2.87;2.57;;;19.10;99.90;;;;;;5059314;28;20489;-81
2023/09/16 08:56:13;;;;;;;3.10;2.80;;;19.30;99.90;;;;;;5054350;28;20464;-81
2023/09/16 08:58:41;;;;;;;5.03;4.30;;;19.50;99.90;;;;;;5064685;28;20459;-81
2023/09/16 09:01:10;;;;;;;3.30;3.10;;;19.40;99.90;;;;;;5064465;28;20496;-81
2023/09/16 09:03:41;;;;;;;4.63;2.80;;;19.60;99.90;;;;;;5055811;28;20521;-83
2023/09/16 09:06:10;;;;;;;3.83;3.40;;;19.80;99.90;;;;;;5058228;28;20453;-80
2023/09/16 09:08:37;;;;;;;3.63;2.93;;;20.00;99.90;;;;;;5052939;28;20490;-81
2023/09/16 09:11:04;;;;;;;4.53;3.10;;;20.10;99.90;;;;;;5057363;28;20494;-80
2023/09/16 09:13:31;;;;;;;3.87;3.10;;;20.20;99.90;;;;;;5056539;28;20450;-80
2023/09/16 09:16:01;;;;;;;3.60;3.07;;;20.10;99.90;;;;;;5062438;28;20526;-80
2023/09/16 09:18:32;;;;;;;2.53;2.40;;;20.30;99.90;;;;;;5061419;28;20510;-80
2023/09/16 09:21:00;;;;;;;2.87;2.67;;;20.30;99.90;;;;;;5058948;28;20541;-81
2023/09/16 09:23:29;;;;;;;2.90;2.70;;;20.40;99.90;;;;;;5059713;28;20467;-80
2023/09/16 09:25:57;;;;;;;2.40;2.17;;;20.50;99.90;;;;;;5060312;28;20443;-81
2023/09/16 09:28:24;;;;;;;2.57;2.37;;;20.70;99.90;;;;;;5065334;28;20491;-81
2023/09/16 09:30:51;;;;;;;2.30;2.10;;;20.80;99.90;;;;;;5078849;28;20466;-81
2023/09/16 09:33:21;;;;;;;2.00;1.60;;;20.80;99.90;;;;;;5064615;28;20466;-81
2023/09/16 09:35:49;;;;;;;2.10;1.93;;;20.90;99.90;;;;;;5062781;28;20518;-80
2023/09/16 09:38:19;;;;;;;2.77;2.57;;;21.00;99.90;;;;;;5059696;28;20533;-81
2023/09/16 09:40:58;;;;;;;2.97;2.73;;;21.00;99.90;;;;;;5063820;28;20517;-82
2023/09/16 09:43:29;;;;;;;4.37;3.97;;;21.10;99.90;;;;;;5064314;28;20467;-80
2023/09/16 09:45:56;;;;;;;3.47;2.77;;;21.20;99.90;;;;;;5066818;28;20971;-79
2023/09/16 09:48:23;;;;;;;3.83;3.20;;;21.20;99.90;;;;;;5067517;28;20535;-82
2023/09/16 09:50:50;;;;;;;2.43;2.30;;;21.50;99.90;;;;;;5066771;28;21222;-81
2023/09/16 09:53:19;;;;;;;2.33;2.13;;;21.60;99.90;;;;;;5074410;28;20459;-81
2023/09/16 09:55:49;;;;;;;4.40;2.70;;;21.70;99.90;;;;;;5059806;28;20464;-81
2023/09/16 09:58:17;;;;;;;2.20;1.80;;;21.90;99.90;;;;;;5058813;28;20467;-81
2023/09/16 10:00:47;;;;;;;2.27;2.00;;;21.70;99.90;;;;;;5064664;28;20464;-80
2023/09/16 10:03:15;;;;;;;2.10;1.87;;;21.60;99.90;;;;;;5057282;28;20508;-80
2023/09/16 10:05:42;;;;;;;2.67;2.47;;;21.70;99.90;;;;;;5058359;28;20463;-81
2023/09/16 10:08:09;;;;;;;1.90;1.80;;;22.00;99.90;;;;;;5052632;28;20492;-81
2023/09/16 10:10:38;;;;;;;1.60;1.50;;;22.00;99.90;;;;;;5062304;28;20475;-81
2023/09/16 10:13:05;;;;;;;2.63;2.10;;;21.90;99.90;;;;;;5059983;28;20468;-82
2023/09/16 10:15:35;;;;;;;2.03;1.87;;;22.20;99.90;;;;;;5068851;28;20460;-81
2023/09/16 10:18:04;;;;;;;1.60;1.50;;;22.30;99.90;;;;;;5066222;28;20458;-81
2023/09/16 10:20:33;;;;;;;2.70;2.37;;;22.20;99.90;;;;;;5070355;28;20444;-80
2023/09/16 10:23:01;;;;;;;1.83;1.73;;;22.30;99.90;;;;;;5065593;28;20463;-81
2023/09/16 10:25:29;;;;;;;2.30;2.07;;;22.50;99.90;;;;;;5073175;28;20464;-80
2023/09/16 10:27:59;;;;;;;3.10;1.70;;;22.40;99.90;;;;;;5063123;28;20563;-81
2023/09/16 10:30:26;;;;;;;1.27;1.20;;;22.60;99.90;;;;;;5068009;28;20495;-81
2023/09/16 10:32:54;;;;;;;1.60;1.50;;;22.60;99.90;;;;;;5066846;28;20456;-80
2023/09/16 10:35:21;;;;;;;5.50;5.10;;;22.60;99.90;;;;;;5066120;28;20535;-80
2023/09/16 10:37:52;;;;;;;6.23;5.73;;;22.50;99.90;;;;;;5057648;28;20501;-80
2023/09/16 10:40:20;;;;;;;3.00;2.10;;;22.70;99.90;;;;;;5056101;28;20464;-81
2023/09/16 10:42:49;;;;;;;2.40;2.17;;;22.80;99.90;;;;;;5056887;28;20497;-79
2023/09/16 10:45:18;;;;;;;1.83;1.50;;;22.40;99.90;;;;;;5061962;28;20463;-80
2023/09/16 10:47:46;;;;;;;2.53;2.13;;;22.60;99.90;;;;;;5065170;28;20574;-81
2023/09/16 10:50:14;;;;;;;5.83;4.33;;;22.80;99.90;;;;;;5063033;28;20494;-80
2023/09/16 10:52:42;;;;;;;3.10;1.90;;;23.10;99.90;;;;;;5063709;28;21009;-81
2023/09/16 10:55:14;;;;;;;4.30;4.00;;;23.10;99.90;;;;;;5067294;28;20571;-81
2023/09/16 10:57:48;;;;;;;2.73;2.40;;;23.20;99.90;;;;;;5082950;28;20473;-81
2023/09/16 11:00:21;;;;;;;3.17;2.40;;;23.40;99.90;;;;;;5072134;28;20545;-81
2023/09/16 11:02:54;;;;;;;3.20;2.73;;;23.20;99.90;;;;;;5067113;28;20463;-81
2023/09/16 11:05:21;;;;;;;3.30;2.50;;;23.30;99.90;;;;;;5066984;28;20494;-80
2023/09/16 11:07:49;;;;;;;1.60;1.50;;;23.20;99.90;;;;;;5068900;28;20483;-80
2023/09/16 11:10:17;;;;;;;2.33;2.13;;;23.30;99.90;;;;;;5063000;28;20456;-81
2023/09/16 11:12:44;;;;;;;3.30;1.50;;;23.40;99.90;;;;;;5064781;28;20472;-80
2023/09/16 11:15:12;;;;;;;7.00;1.73;;;23.40;99.90;;;;;;5063425;28;20950;-81
2023/09/16 11:17:41;;;;;;;4.30;2.40;;;23.50;99.90;;;;;;5059028;28;20464;-80
2023/09/16 11:20:12;;;;;;;3.43;3.17;;;23.40;99.90;;;;;;5065911;28;20466;-81
2023/09/16 11:22:47;;;;;;;2.27;2.00;;;23.30;99.90;;;;;;5064020;28;20471;-81
2023/09/16 11:25:14;;;;;;;2.33;2.13;;;23.50;99.90;;;;;;5064607;28;20505;-80
2023/09/16 11:27:41;;;;;;;1.90;1.80;;;23.70;99.90;;;;;;5062072;28;20518;-81
2023/09/16 11:30:12;;;;;;;1.40;1.30;;;23.90;99.90;;;;;;5061402;28;20918;-81
2023/09/16 11:32:42;;;;;;;1.63;1.53;;;24.10;99.90;;;;;;5060408;28;20460;-83
2023/09/16 11:35:10;;;;;;;3.30;2.20;;;24.20;99.90;;;;;;5063912;28;20464;-83
2023/09/16 11:37:37;;;;;;;2.63;2.43;;;24.20;99.90;;;;;;5064877;28;20460;-83
2023/09/16 11:40:10;;;;;;;1.90;1.80;;;24.20;99.90;;;;;;5071416;28;20455;-81
2023/09/16 11:42:38;;;;;;;1.97;1.70;;;23.90;99.90;;;;;;5066288;28;20440;-81
2023/09/16 11:45:06;;;;;;;1.77;1.50;;;23.90;99.90;;;;;;5062829;28;20951;-81
2023/09/16 11:47:34;;;;;;;2.37;1.93;;;24.00;99.90;;;;;;5064546;28;20447;-83
2023/09/16 11:50:07;;;;;;;2.23;2.03;;;24.00;99.90;;;;;;5059940;28;20483;-83
2023/09/16 11:52:37;;;;;;;2.20;2.10;;;24.20;99.90;;;;;;5063348;28;20525;-82
2023/09/16 11:55:05;;;;;;;1.80;1.70;;;24.40;99.90;;;;;;5064261;28;20471;-81
2023/09/16 11:57:32;;;;;;;1.47;1.37;;;24.40;99.90;;;;;;5066790;28;20459;-81
2023/09/16 11:59:59;;;;;;;2.30;2.10;;;24.30;99.90;;;;;;5064560;28;20946;-82
2023/09/16 12:02:26;;;;;;;5.30;1.70;;;24.40;99.90;;;;;;5061887;28;20465;-81
2023/09/16 12:04:53;;;;;;;1.33;1.23;;;24.40;99.90;;;;;;5053908;28;20464;-82
2023/09/16 12:07:24;;;;;;;1.97;1.87;;;24.50;99.90;;;;;;5057396;28;20470;-82
2023/09/16 12:09:51;;;;;;;1.50;1.40;;;24.50;99.90;;;;;;5064376;28;20487;-81
2023/09/16 12:12:19;;;;;;;2.50;1.50;;;24.30;99.90;;;;;;5062164;28;20467;-81
2023/09/16 12:14:46;;;;;;;1.60;1.50;;;24.50;99.90;;;;;;5065465;28;20455;-81
2023/09/16 12:17:13;;;;;;;1.67;1.57;;;24.70;99.90;;;;;;5066121;28;20451;-82
2023/09/16 12:19:49;;;;;;;1.33;1.23;;;24.80;99.90;;;;;;5077084;28;20464;-83
2023/09/16 12:22:17;;;;;;;2.23;2.03;;;24.80;99.90;;;;;;5070595;28;20565;-82
2023/09/16 12:24:46;;;;;;;2.10;2.00;;;24.50;99.90;;;;;;5071207;28;20464;-81
2023/09/16 12:27:13;;;;;;;2.50;2.30;;;24.60;99.90;;;;;;5065798;28;20455;-81
2023/09/16 12:29:41;;;;;;;1.30;1.20;;;24.40;99.90;;;;;;5070155;28;21278;-81
2023/09/16 12:32:10;;;;;;;2.30;2.20;;;24.60;99.90;;;;;;5066510;28;20996;-83
2023/09/16 12:34:37;;;;;;;2.07;1.87;;;24.90;99.90;;;;;;5059763;28;20881;-81
2023/09/16 12:37:04;;;;;;;1.67;1.57;;;25.00;99.90;;;;;;5064355;28;20463;-81
2023/09/16 12:39:34;;;;;;;2.57;2.40;;;25.00;99.90;;;;;;5060871;28;20938;-81
2023/09/16 12:42:03;;;;;;;1.97;1.87;;;25.00;99.90;;;;;;5061344;28;20778;-81
2023/09/16 12:44:31;;;;;;;1.63;1.50;;;25.00;99.90;;;;;;5064956;28;20499;-80
2023/09/16 12:46:58;;;;;;;2.37;1.80;;;24.90;99.90;;;;;;5062630;28;20448;-81
2023/09/16 12:49:26;;;;;;;5.73;1.87;;;25.00;99.90;;;;;;5064801;28;20549;-82